Station: Jervois

  Atmospheric Gas Attenuation - ITU Rec 676-11   --------------- db/100km ---------------
Date Time Temp RH % AH g/m3 Dew Point Wind Direction Speed kph Gust kph Barometer mB Rainfall Since 9am 24GHz 47GHz 76GHz 122GHz 134GHz 241GHz
11 21:50 17.8 37 5.62 2.9 9 11 1018.6 0 13.1 20.6 27.4 71.2 58.5 199.0
11 21:40 18.2 36 5.6 2.9 9 11 1018.5 0 13.1 20.5 27.1 70.6 58.0 197.2
11 21:30 18.6 35 5.57 2.9 11 15 1018.3 0 13.0 20.4 26.9 70.0 57.4 195.1
11 21:20 19 33 5.38 2.4 11 13 1018.2 0 12.6 20.0 26.1 68.0 55.0 186.8
11 21:10 19.3 32 5.31 2.2 11 13 1018.1 0 12.4 19.9 25.8 67.1 54.0 183.4
11 21:00 19.5 32 5.37 2.4 11 15 1018 0 12.5 19.9 26.0 67.5 54.5 185.3
11 20:50 19.7 32 5.43 2.6 11 13 1017.9 0 12.7 19.9 26.1 67.8 55.1 187.1
11 20:40 19.8 32 5.47 2.6 11 15 1017.8 0 12.7 19.9 26.2 68.1 55.4 188.4
11 20:30 19.8 32 5.47 2.6 11 13 1017.5 0 12.7 19.9 26.2 68.0 55.4 188.3
11 20:20 20 31 5.36 2.4 9 11 1017.6 0 12.5 19.8 25.8 66.9 54.1 183.7
11 20:10 20.2 31 5.42 2.5 11 13 1017.4 0 12.6 19.8 25.9 67.3 54.6 185.5
11 20:00 20.3 31 5.45 2.6 9 11 1017.2 0 12.7 19.8 25.9 67.4 54.8 186.4
11 19:50 20.6 30 5.37 2.4 9 11 1017.1 0 12.5 19.6 25.6 66.5 53.8 182.7
11 19:40 20.9 29 5.28 2.2 7 9 1017 0 12.3 19.4 25.2 65.5 52.6 178.6
11 19:30 21.4 29 5.44 2.6 11 13 1016.8 0 12.6 19.5 25.6 66.4 54.0 183.5
11 19:20 21.7 28 5.34 2.4 9 11 1016.9 0 12.4 19.4 25.1 65.3 52.7 179.1
11 19:10 22.3 27 5.33 2.4 11 15 1016.7 0 12.4 19.2 24.9 64.8 52.2 177.5
11 19:00 22.6 26 5.22 2.1 11 17 1016.6 0 12.1 19.0 24.5 63.6 50.9 172.8
11 18:50 22.9 26 5.31 2.4 13 15 1016.6 0 12.3 19.1 24.7 64.1 51.6 175.5
11 18:40 23.3 26 5.44 2.7 15 17 1016.6 0 12.6 19.1 25.0 64.9 52.7 179.4
11 18:30 23.5 25 5.29 2.4 15 22 1016.5 0 12.2 18.9 24.5 63.5 51.1 173.5
11 18:20 23.8 24 5.16 2 17 19 1016.4 0 12.0 18.7 24.0 62.2 49.5 168.2
11 18:10 24.1 24 5.25 2.3 19 28 1016.4 0 12.1 18.7 24.2 62.7 50.3 170.8
11 18:00 24.4 23 5.12 1.9 19 28 1016.2 0 11.9 18.5 23.7 61.4 48.8 165.5
11 17:50 24.7 23 5.21 2.2 22 28 1016.3 0 12.0 18.6 23.9 61.9 49.5 168.1
11 17:40 24.9 22 5.04 1.7 22 32 1016.1 0 11.7 18.3 23.3 60.4 47.7 161.7
11 17:30 25.3 22 5.15 2.1 24 35 1016 0 11.9 18.4 23.5 61.0 48.5 164.8
11 17:20 25.3 22 5.15 2.1 24 30 1016 0 11.9 18.4 23.5 61.0 48.5 164.8
11 17:10 25.9 21 5.08 1.9 20 30 1016 0 11.7 18.2 23.1 60.0 47.5 161.2
11 17:00 25.5 22 5.21 2.2 20 37 1015.8 0 12.0 18.4 23.6 61.3 49.0 166.5
11 16:50 25.8 21 5.06 1.8 24 28 1015.9 0 11.7 18.2 23.1 59.9 47.4 160.7
11 16:40 25.9 21 5.08 1.9 24 32 1015.9 0 11.7 18.2 23.1 60.0 47.5 161.2
11 16:30 26 21 5.11 2 22 37 1015.8 0 11.8 18.2 23.2 60.2 47.7 162.0
11 16:20 26.5 21 5.26 2.4 17 22 1015.9 0 12.1 18.3 23.5 61.0 48.9 166.3
11 16:10 25.8 21 5.06 1.8 22 30 1015.9 0 11.7 18.2 23.1 59.9 47.4 160.7
11 16:00 26.7 21 5.32 2.6 24 41 1015.9 0 12.2 18.3 23.6 61.3 49.4 168.0
11 15:50 26.3 21 5.2 2.3 19 24 1016 0 12.0 18.2 23.4 60.7 48.5 164.6
11 15:40 26.1 20 4.9 1.4 22 24 1016.1 0 11.4 17.9 22.5 58.4 45.6 154.6
11 15:30 26.7 20 5.06 1.9 20 32 1016 0 11.7 18.0 22.8 59.3 46.9 159.0
11 15:20 26.7 19 4.81 1.2 24 33 1016.1 0 11.2 17.7 22.1 57.3 44.4 150.5
11 15:10 26.7 20 5.06 1.9 20 30 1016.1 0 11.7 18.0 22.9 59.3 46.9 159.0
11 15:00 26.3 20 4.95 1.6 24 35 1015.9 0 11.5 17.9 22.6 58.7 46.0 155.9
11 14:50 26.4 20 4.98 1.7 28 33 1016.1 0 11.5 18.0 22.7 58.9 46.2 156.8
11 14:40 26.2 20 4.92 1.5 28 32 1016.1 0 11.4 17.9 22.6 58.5 45.8 155.1
11 14:30 26 20 4.87 1.3 20 35 1016.1 0 11.3 17.9 22.5 58.3 45.4 153.8
11 14:20 26.1 20 4.9 1.4 24 30 1016.4 0 11.4 17.9 22.5 58.5 45.6 154.7
11 14:10 26.1 18 4.41 0 26 37 1016.4 0 10.3 17.3 21.1 54.6 40.9 137.9
11 14:00 26.3 19 4.7 0.9 22 32 1016.4 0 10.9 17.7 21.9 56.8 43.6 147.4
11 13:50 25.9 19 4.6 0.5 19 20 1016.7 0 10.7 17.6 21.7 56.3 42.8 144.8
11 13:40 26 20 4.87 1.3 22 26 1016.9 0 11.3 17.9 22.5 58.3 45.4 153.9
11 13:30 25.4 20 4.71 0.8 22 35 1017 0 11.0 17.8 22.2 57.5 44.2 149.4
11 13:20 25.1 21 4.86 1.3 26 30 1017.3 0 11.3 18.1 22.7 58.9 45.8 155.2
11 13:10 24.9 21 4.81 1.1 22 33 1017.4 0 11.2 18.1 22.6 58.6 45.4 153.9
11 13:00 24.6 22 4.95 1.5 26 39 1017.5 0 11.5 18.3 23.1 60.0 47.0 159.3
11 12:50 25 21 4.83 1.2 20 26 1017.6 0 11.2 18.1 22.7 58.7 45.6 154.4
11 12:40 24.8 22 5.01 1.7 22 28 1017.7 0 11.6 18.3 23.3 60.3 47.5 161.1
11 12:30 25 21 4.83 1.2 24 41 1017.9 0 11.2 18.1 22.7 58.8 45.6 154.4
11 12:20 25.2 22 5.12 2 26 30 1018 0 11.8 18.4 23.5 61.0 48.4 164.2
11 12:10 24.6 22 4.95 1.5 24 32 1018.2 0 11.5 18.3 23.2 60.0 47.0 159.4
11 12:00 24.1 23 5.03 1.7 24 37 1018.4 0 11.7 18.5 23.5 61.1 48.1 163.2
11 11:50 24.2 24 5.28 2.4 26 32 1018.7 0 12.2 18.8 24.3 63.1 50.6 172.0
11 11:40 23.8 24 5.16 2 28 35 1018.8 0 12.0 18.8 24.0 62.4 49.7 168.5
11 11:30 23.6 25 5.32 2.4 24 41 1018.8 0 12.3 19.0 24.6 63.9 51.4 174.7
11 11:20 23.7 26 5.56 3.1 20 26 1019 0 12.8 19.3 25.3 65.8 53.8 183.2
11 11:10 22.9 27 5.52 2.9 26 33 1019.1 0 12.7 19.4 25.4 66.1 53.9 183.5
11 11:00 22.8 28 5.69 3.4 26 39 1019.1 0 13.1 19.7 26.0 67.6 55.8 190.0
11 10:50 22.9 28 5.72 3.4 28 37 1019.4 0 13.2 19.7 26.1 67.8 56.1 191.0
11 10:40 22.6 29 5.83 3.7 28 37 1019.5 0 13.4 19.9 26.5 69.0 57.4 195.8
11 10:30 22.5 30 5.99 4.1 28 39 1019.6 0 13.7 20.1 27.1 70.5 59.2 202.1
11 10:20 22.1 32 6.25 4.6 30 43 1019.8 0 14.3 20.6 28.1 73.1 62.3 213.0
11 10:10 21.7 33 6.29 4.7 28 39 1019.8 0 14.4 20.7 28.3 73.8 63.1 215.5
11 10:00 21.9 33 6.37 4.9 28 43 1019.8 0 14.5 20.8 28.5 74.4 63.8 218.1
11 09:50 21.3 34 6.34 4.8 30 37 1019.9 0 14.5 20.9 28.6 74.6 63.9 218.5
11 09:40 20.7 35 6.3 4.7 26 30 1020 0 14.4 20.9 28.7 74.8 64.0 218.6
11 09:30 20.5 36 6.41 4.9 26 41 1020 0 14.7 21.1 29.2 76.0 65.4 223.4
11 09:20 20.3 38 6.68 5.5 32 41 1020.1 0 15.2 21.6 30.2 78.7 68.6 234.7
11 09:10 20 38 6.57 5.3 30 32 1020.1 0 15.0 21.5 29.9 78.0 67.6 231.1
11 09:00 19.7 39 6.62 5.4 22 33 1019.9 0 15.1 21.6 30.2 78.7 68.4 233.9
11 08:50 18.7 40 6.4 4.8 20 28 1020 0 14.7 21.5 29.8 77.6 66.7 228.0
11 08:40 18.6 40 6.37 4.8 24 30 1020 0 14.7 21.5 29.7 77.4 66.5 227.0
11 08:30 18.3 41 6.41 4.8 20 32 1019.8 0 14.8 21.6 29.9 78.1 67.2 229.4
11 08:20 18 42 6.45 4.9 22 30 1019.8 0 14.9 21.8 30.2 78.7 67.9 231.9
11 08:10 17.7 43 6.49 5 20 28 1019.7 0 14.9 21.9 30.4 79.4 68.6 234.4
11 08:00 17.2 43 6.3 4.5 19 28 1019.5 0 14.6 21.7 29.9 78.1 66.8 228.0
11 07:50 16.9 45 6.47 4.9 11 13 1019.5 0 14.9 22.0 30.7 80.0 69.0 235.8
11 07:40 16.2 47 6.48 4.9 15 20 1019.5 0 15.0 22.2 31.0 80.8 69.7 238.3
11 07:30 15.7 49 6.56 5 13 19 1019.3 0 15.2 22.5 31.4 82.0 71.1 243.1
11 07:20 15.2 51 6.62 5.1 11 13 1019.2 0 15.3 22.7 31.8 83.1 72.3 247.1
11 07:10 14.6 54 6.76 5.4 9 13 1019.2 0 15.6 23.0 32.6 85.1 74.5 254.9
11 07:00 14.1 55 6.68 5.2 7 11 1019 0 15.5 23.0 32.5 84.8 74.0 253.0
11 06:50 14 55 6.63 5.1 7 9 1019 0 15.4 23.0 32.3 84.4 73.5 251.2
11 06:40 14.1 55 6.68 5.2 7 9 1018.8 0 15.5 23.0 32.5 84.8 74.0 253.0
11 06:30 14.3 53 6.51 4.9 7 11 1018.6 0 15.1 22.7 31.8 82.9 71.7 245.1
11 06:20 14.6 52 6.51 4.9 9 11 1018.6 0 15.1 22.6 31.6 82.6 71.5 244.1
11 06:10 14.8 52 6.59 5.1 7 11 1018.5 0 15.3 22.7 31.8 83.2 72.2 246.9
11 06:00 15 51 6.54 5 9 15 1018.4 0 15.2 22.6 31.6 82.4 71.5 244.2
11 05:50 15.2 51 6.62 5.1 9 11 1018.4 0 15.3 22.6 31.8 83.0 72.2 246.9
11 05:40 15.4 50 6.57 5 11 13 1018.4 0 15.2 22.5 31.5 82.3 71.5 244.2
11 04:50 16.1 49 6.72 5.4 17 20 1017.6 0 15.5 22.5 31.8 83.0 72.6 248.2
11 04:40 16.2 50 6.89 5.8 17 20 1017.4 0 15.8 22.8 32.4 84.5 74.5 255.0

Last Refresh: 11-Apr-2021 22:03:09

Bureau of Meteorology